Time;durP1;ratioP1;P1;durP2;ratioP2;P2;SDS_P1;SDS_P2;PMS_P1;PMS_P2;Temp;Humidity;BMP_temperature;BMP_pressure;BME280_temperature;BME280_humidity;BME280_pressure;Samples;Min_cycle;Max_cycle;Signal;HPM_P1;HPM_P2
2022/08/22 00:01:45;;;;;;;;;;;20.70;99.40;;;;;;5032506;28;19927;-46
2022/08/22 00:04:25;;;;;;;;;;;20.70;99.50;;;;;;5032582;28;19924;-51
2022/08/22 00:06:56;;;;;;;;;;;20.60;99.40;;;;;;5032241;28;19936;-49
2022/08/22 00:09:28;;;;;;;;;;;20.50;99.50;;;;;;5032697;28;19913;-46
2022/08/22 00:12:28;;;;;;;;;;;20.40;99.70;;;;;;5033095;28;19916;-46
2022/08/22 00:15:03;;;;;;;;;;;20.30;99.90;;;;;;5033772;28;19917;-48
2022/08/22 00:17:37;;;;;;;;;;;20.20;99.90;;;;;;5032382;28;20340;-48
2022/08/22 00:20:09;;;;;;;;;;;20.00;99.60;;;;;;5031973;28;19921;-47
2022/08/22 00:22:49;;;;;;;;;;;20.00;99.90;;;;;;5031836;28;19967;-48
2022/08/22 00:25:33;;;;;;;;;;;20.00;99.90;;;;;;5032409;28;19916;-47
2022/08/22 00:28:03;;;;;;;;;;;20.00;99.90;;;;;;5025115;28;19913;-49
2022/08/22 00:30:30;;;;;;;;;;;20.00;99.90;;;;;;5012866;28;19932;-48
2022/08/22 00:33:04;;;;;;;;;;;20.10;99.90;;;;;;5030786;28;19925;-51
2022/08/22 00:35:37;;;;;;;;;;;20.20;99.90;;;;;;5031983;28;19917;-51
2022/08/22 00:38:15;;;;;;;;;;;20.20;99.90;;;;;;5031874;28;19973;-46
2022/08/22 00:40:46;;;;;;;;;;;20.20;99.90;;;;;;5031937;28;19913;-47
2022/08/22 00:43:12;;;;;;;;;;;20.30;99.90;;;;;;5031711;28;20289;-48
2022/08/22 00:45:43;;;;;;;;;;;20.20;99.90;;;;;;5031547;28;19917;-52
2022/08/22 00:48:28;;;;;;;;;;;20.30;99.90;;;;;;5032110;28;19924;-50
2022/08/22 00:51:03;;;;;;;;;;;20.20;99.90;;;;;;5031376;28;19921;-50
2022/08/22 00:53:43;;;;;;;;;;;20.20;99.90;;;;;;5023677;28;19910;-48
2022/08/22 00:56:11;;;;;;;;;;;20.20;99.90;;;;;;5027516;28;20369;-50
2022/08/22 00:58:37;;;;;;;;;;;20.20;99.90;;;;;;5031442;28;20432;-49
2022/08/22 01:01:05;;;;;;;;;;;20.20;99.90;;;;;;5031435;28;20040;-46
2022/08/22 01:03:34;;;;;;;;;;;20.20;99.90;;;;;;5031874;28;19917;-46
2022/08/22 01:06:11;;;;;;;;;;;20.20;99.90;;;;;;5030884;28;19917;-50
2022/08/22 01:08:49;;;;;;;;;;;20.10;99.90;;;;;;5031202;28;20007;-47
2022/08/22 01:11:21;;;;;;;;;;;20.10;99.90;;;;;;5031790;28;19909;-47
2022/08/22 01:13:49;;;;;;;;;;;20.10;99.90;;;;;;5031471;28;19913;-50
2022/08/22 01:16:33;;;;;;;;;;;20.10;99.90;;;;;;5031824;28;19917;-45
2022/08/22 01:19:07;;;;;;;;;;;20.00;99.90;;;;;;5031378;28;20001;-47
2022/08/22 01:21:36;;;;;;;;;;;20.00;99.90;;;;;;5029879;28;19951;-46
2022/08/22 01:24:17;;;;;;;;;;;20.00;99.90;;;;;;5031009;28;19913;-47
2022/08/22 01:27:12;;;;;;;;;;;19.90;99.90;;;;;;5030715;28;19982;-48
2022/08/22 01:29:52;;;;;;;;;;;19.90;99.90;;;;;;5025585;28;19928;-52
2022/08/22 01:32:18;;;;;;;;;;;19.90;99.90;;;;;;5030077;28;20418;-47
2022/08/22 01:34:58;;;;;;;;;;;19.90;99.90;;;;;;5045729;28;19959;-50
2022/08/22 01:37:23;;;;;;;;;;;19.90;99.90;;;;;;5030952;28;19925;-48
2022/08/22 01:40:04;;;;;;;;;;;19.80;99.90;;;;;;5031477;28;19925;-46
2022/08/22 01:42:36;;;;;;;;;;;19.80;99.90;;;;;;5031305;28;19921;-50
2022/08/22 01:45:01;;;;;;;;;;;19.70;99.90;;;;;;5031320;28;19913;-46
2022/08/22 01:47:32;;;;;;;;;;;19.70;99.90;;;;;;5031268;28;19919;-49
2022/08/22 01:50:17;;;;;;;;;;;19.70;99.90;;;;;;5030817;28;20348;-48
2022/08/22 01:52:45;;;;;;;;;;;19.50;99.90;;;;;;5031299;28;19917;-46
2022/08/22 01:55:20;;;;;;;;;;;19.40;99.90;;;;;;5031271;28;19917;-51
2022/08/22 01:57:53;;;;;;;;;;;19.30;99.90;;;;;;5030752;28;20387;-47
2022/08/22 02:00:19;;;;;;;;;;;19.30;99.90;;;;;;5031475;28;20341;-51
2022/08/22 02:02:45;;;;;;;;;;;19.20;99.90;;;;;;5032901;28;19913;-52
2022/08/22 02:05:24;;;;;;;;;;;19.30;99.90;;;;;;5031983;28;19966;-56
2022/08/22 02:08:01;;;;;;;;;;;19.30;99.90;;;;;;5016617;28;20376;-45
2022/08/22 02:10:42;;;;;;;;;;;19.30;99.90;;;;;;5012302;28;19909;-46
2022/08/22 02:13:11;;;;;;;;;;;19.30;99.90;;;;;;5012743;28;19940;-51
2022/08/22 02:15:37;;;;;;;;;;;19.20;99.90;;;;;;5032287;28;19917;-47
2022/08/22 02:18:02;;;;;;;;;;;19.10;99.90;;;;;;5031989;28;19935;-48
2022/08/22 02:20:38;;;;;;;;;;;19.00;99.90;;;;;;5035323;28;19909;-51
2022/08/22 02:23:22;;;;;;;;;;;19.00;99.90;;;;;;5035762;28;20373;-46
2022/08/22 02:26:07;;;;;;;;;;;19.00;99.90;;;;;;5035172;28;19917;-48
2022/08/22 02:28:39;;;;;;;;;;;19.00;99.90;;;;;;5033925;28;19913;-47
2022/08/22 02:31:11;;;;;;;;;;;18.90;99.90;;;;;;5034729;28;19913;-50
2022/08/22 02:33:37;;;;;;;;;;;18.90;99.90;;;;;;5034129;28;20008;-47
2022/08/22 02:36:08;;;;;;;;;;;18.80;99.90;;;;;;5049842;28;20004;-46
2022/08/22 02:38:51;;;;;;;;;;;18.80;99.90;;;;;;5034876;28;20435;-52
2022/08/22 02:41:25;;;;;;;;;;;18.40;99.90;;;;;;5034861;28;20000;-46
2022/08/22 02:43:53;;;;;;;;;;;18.20;99.90;;;;;;5026685;28;19910;-45
2022/08/22 02:46:27;;;;;;;;;;;18.20;99.90;;;;;;5033858;28;19913;-46
2022/08/22 02:49:11;;;;;;;;;;;18.10;99.90;;;;;;5034725;28;19996;-47
2022/08/22 02:51:43;;;;;;;;;;;18.10;99.90;;;;;;5033738;28;19979;-46
2022/08/22 02:54:16;;;;;;;;;;;18.10;99.90;;;;;;5049489;28;19963;-45
2022/08/22 02:56:51;;;;;;;;;;;18.20;99.90;;;;;;5033625;28;19959;-49
2022/08/22 02:59:25;;;;;;;;;;;18.30;99.90;;;;;;5034264;28;19921;-46
2022/08/22 03:01:52;;;;;;;;;;;18.40;99.90;;;;;;5033891;28;19913;-45
2022/08/22 03:04:29;;;;;;;;;;;18.50;99.90;;;;;;5034002;28;20327;-46
2022/08/22 03:07:10;;;;;;;;;;;18.60;99.90;;;;;;5033737;28;19909;-47
2022/08/22 03:09:44;;;;;;;;;;;18.60;99.90;;;;;;5033570;28;19924;-46
2022/08/22 03:12:19;;;;;;;;;;;18.70;99.90;;;;;;5032698;28;19924;-52
2022/08/22 03:14:57;;;;;;;;;;;18.70;99.90;;;;;;5029453;28;19941;-45
2022/08/22 03:17:35;;;;;;;;;;;18.70;99.90;;;;;;5032980;28;19927;-51
2022/08/22 03:20:11;;;;;;;;;;;18.60;99.90;;;;;;5033911;28;19917;-48
2022/08/22 03:22:46;;;;;;;;;;;18.60;99.90;;;;;;5033101;28;20365;-51
2022/08/22 03:25:41;;;;;;;;;;;18.50;99.90;;;;;;5033042;28;19913;-51
2022/08/22 03:28:13;;;;;;;;;;;18.50;99.90;;;;;;5032590;28;19919;-49
2022/08/22 03:30:55;;;;;;;;;;;18.60;99.90;;;;;;5033095;28;19995;-51
2022/08/22 03:33:25;;;;;;;;;;;18.60;99.90;;;;;;5033399;28;19959;-48
2022/08/22 03:36:30;;;;;;;;;;;18.60;99.90;;;;;;5033354;28;19917;-46
2022/08/22 03:39:01;;;;;;;;;;;18.50;99.90;;;;;;4975402;28;19914;-46
2022/08/22 03:41:42;;;;;;;;;;;18.40;99.90;;;;;;4992035;28;19941;-46
2022/08/22 03:44:17;;;;;;;;;;;18.30;99.90;;;;;;5024615;28;19909;-46
2022/08/22 03:47:02;;;;;;;;;;;18.30;99.90;;;;;;5033292;28;20386;-48
2022/08/22 03:49:53;;;;;;;;;;;18.30;99.90;;;;;;5032838;28;20396;-47
2022/08/22 03:53:05;;;;;;;;;;;18.30;99.90;;;;;;5032771;28;20054;-50
2022/08/22 03:55:33;;;;;;;;;;;18.30;99.90;;;;;;5028967;28;19967;-46
2022/08/22 03:58:27;;;;;;;;;;;18.30;99.90;;;;;;5032847;28;19909;-47
2022/08/22 04:00:53;;;;;;;;;;;18.40;99.90;;;;;;5021448;28;19920;-47
2022/08/22 04:03:34;;;;;;;;;;;18.30;99.90;;;;;;5030698;28;20578;-48
2022/08/22 04:06:18;;;;;;;;;;;18.30;99.90;;;;;;5033024;28;19926;-50
2022/08/22 04:08:44;;;;;;;;;;;18.20;99.90;;;;;;5032065;28;20305;-52
2022/08/22 04:11:10;;;;;;;;;;;18.10;99.90;;;;;;5032489;28;20335;-52
2022/08/22 04:13:48;;;;;;;;;;;18.00;99.90;;;;;;5031831;28;19917;-50
2022/08/22 04:16:32;;;;;;;;;;;18.00;99.90;;;;;;5032285;28;19964;-50
2022/08/22 04:19:06;;;;;;;;;;;17.90;99.90;;;;;;5032923;28;19913;-49
2022/08/22 04:21:41;;;;;;;;;;;17.80;99.90;;;;;;5032188;28;19913;-48
2022/08/22 04:24:26;;;;;;;;;;;17.90;99.90;;;;;;5032646;28;19916;-46
2022/08/22 04:26:55;;;;;;;;;;;17.90;99.90;;;;;;5032409;28;19920;-46
2022/08/22 04:29:43;;;;;;;;;;;17.80;99.90;;;;;;5032184;28;19913;-47
2022/08/22 04:32:29;;;;;;;;;;;17.70;99.90;;;;;;5031929;28;20544;-46
2022/08/22 04:35:01;;;;;;;;;;;17.70;99.90;;;;;;5031349;28;19992;-47
2022/08/22 04:37:27;;;;;;;;;;;17.70;99.90;;;;;;5032535;28;20295;-46
2022/08/22 04:39:57;;;;;;;;;;;17.80;99.90;;;;;;5032207;28;19921;-52
2022/08/22 04:42:36;;;;;;;;;;;17.70;99.90;;;;;;5032765;28;20411;-49
2022/08/22 04:45:28;;;;;;;;;;;17.70;99.90;;;;;;5031496;28;19956;-47
2022/08/22 04:48:04;;;;;;;;;;;17.80;99.90;;;;;;5030701;28;20284;-46
2022/08/22 04:50:35;;;;;;;;;;;17.70;99.90;;;;;;5031938;28;19988;-46
2022/08/22 04:53:02;;;;;;;;;;;17.70;99.90;;;;;;5032136;28;19993;-51
2022/08/22 04:55:33;;;;;;;;;;;17.80;99.90;;;;;;5031293;28;19920;-48
2022/08/22 04:58:08;;;;;;;;;;;17.80;99.90;;;;;;5031931;28;19917;-46
2022/08/22 05:00:54;;;;;;;;;;;17.80;99.90;;;;;;5031565;28;19913;-47
2022/08/22 05:03:20;;;;;;;;;;;17.70;99.90;;;;;;5031688;28;19913;-51
2022/08/22 05:05:47;;;;;;;;;;;17.70;99.90;;;;;;5031593;28;19991;-46
2022/08/22 05:08:17;;;;;;;;;;;17.80;99.90;;;;;;5031549;28;19909;-45
2022/08/22 05:10:45;;;;;;;;;;;17.80;99.90;;;;;;5030391;28;19963;-45
2022/08/22 05:13:31;;;;;;;;;;;17.80;99.90;;;;;;5032109;28;20411;-46
2022/08/22 05:15:58;;;;;;;;;;;17.90;99.90;;;;;;5031119;28;19917;-46
2022/08/22 05:18:44;;;;;;;;;;;17.80;99.90;;;;;;5032119;28;20304;-49
2022/08/22 05:21:11;;;;;;;;;;;17.90;99.90;;;;;;5033252;28;19920;-46
2022/08/22 05:23:41;;;;;;;;;;;17.90;99.90;;;;;;5033149;28;20008;-48
2022/08/22 05:26:07;;;;;;;;;;;18.00;99.90;;;;;;5031707;28;19913;-51
2022/08/22 05:28:32;;;;;;;;;;;18.00;99.90;;;;;;5029584;28;19913;-50
2022/08/22 05:30:58;;;;;;;;;;;18.10;99.90;;;;;;5031407;28;19909;-47
2022/08/22 05:33:27;;;;;;;;;;;18.20;99.90;;;;;;5026443;28;19914;-50
2022/08/22 05:35:56;;;;;;;;;;;18.20;99.90;;;;;;5011545;28;19918;-47
2022/08/22 05:38:24;;;;;;;;;;;18.20;99.90;;;;;;5011543;28;19917;-46
2022/08/22 05:40:56;;;;;;;;;;;18.20;99.90;;;;;;5011650;28;19918;-48
2022/08/22 05:43:23;;;;;;;;;;;18.20;99.90;;;;;;5027499;28;19991;-46
2022/08/22 05:45:49;;;;;;;;;;;18.10;99.90;;;;;;5031004;28;19974;-48
2022/08/22 05:48:19;;;;;;;;;;;18.10;99.90;;;;;;5030828;28;19917;-47
2022/08/22 05:50:55;;;;;;;;;;;18.20;99.90;;;;;;5031086;28;19921;-47
2022/08/22 05:53:20;;;;;;;;;;;18.10;99.90;;;;;;5035006;28;19959;-46
2022/08/22 05:55:55;;;;;;;;;;;18.10;99.90;;;;;;5033985;28;19917;-47
2022/08/22 05:58:33;;;;;;;;;;;18.20;99.90;;;;;;5035244;28;20004;-45
2022/08/22 06:01:08;;;;;;;;;;;18.30;99.90;;;;;;5034601;28;20401;-47
2022/08/22 06:03:39;;;;;;;;;;;18.40;99.90;;;;;;5034879;28;20369;-50
2022/08/22 06:06:10;;;;;;;;;;;18.40;99.90;;;;;;5033834;28;19913;-47
2022/08/22 06:08:41;;;;;;;;;;;18.40;99.90;;;;;;5035133;28;19917;-50
2022/08/22 06:11:18;;;;;;;;;;;18.40;99.90;;;;;;5035291;28;19960;-46
2022/08/22 06:13:49;;;;;;;;;;;18.30;99.90;;;;;;5034313;28;19913;-50
2022/08/22 06:16:21;;;;;;;;;;;18.30;99.90;;;;;;5035482;28;19920;-47
2022/08/22 06:18:48;;;;;;;;;;;18.40;99.90;;;;;;5034753;28;20277;-47
2022/08/22 06:21:24;;;;;;;;;;;18.40;99.90;;;;;;5034851;28;19913;-48
2022/08/22 06:23:57;;;;;;;;;;;18.50;99.90;;;;;;5035026;28;19913;-49
2022/08/22 06:26:24;;;;;;;;;;;18.60;99.90;;;;;;5035864;28;19910;-50
2022/08/22 06:28:53;;;;;;;;;;;18.70;99.90;;;;;;5035194;28;19921;-46
2022/08/22 06:31:25;;;;;;;;;;;18.70;99.90;;;;;;5034813;28;19913;-47
2022/08/22 06:33:58;;;;;;;;;;;18.80;99.90;;;;;;5035082;28;19913;-49
2022/08/22 06:36:30;;;;;;;;;;;18.80;99.90;;;;;;5034305;28;19924;-46
2022/08/22 06:38:59;;;;;;;;;;;18.90;99.90;;;;;;5035327;28;19910;-46
2022/08/22 06:41:26;;;;;;;;;;;18.90;99.90;;;;;;5034533;28;20452;-47
2022/08/22 06:43:52;;;;;;;;;;;19.00;99.90;;;;;;5033825;28;19980;-49
2022/08/22 06:46:19;;;;;;;;;;;19.00;99.90;;;;;;5034440;28;19957;-51
2022/08/22 06:48:45;;;;;;;;;;;19.00;99.90;;;;;;5034412;28;20003;-50
2022/08/22 06:51:11;;;;;;;;;;;19.00;99.90;;;;;;5034513;28;20008;-51
2022/08/22 06:53:41;;;;;;;;;;;19.10;99.90;;;;;;5034517;28;19913;-47
2022/08/22 06:56:08;;;;;;;;;;;19.20;99.90;;;;;;5034237;28;19920;-51
2022/08/22 06:58:37;;;;;;;;;;;19.20;99.90;;;;;;5033783;28;19918;-51
2022/08/22 07:01:07;;;;;;;;;;;19.30;99.90;;;;;;5035403;28;19909;-47
2022/08/22 07:03:35;;;;;;;;;;;19.50;99.90;;;;;;5033623;28;19909;-47
2022/08/22 07:06:02;;;;;;;;;;;19.60;99.90;;;;;;5033994;28;19989;-49
2022/08/22 07:08:29;;;;;;;;;;;19.70;99.90;;;;;;5034216;28;19916;-50
2022/08/22 07:10:54;;;;;;;;;;;19.70;99.90;;;;;;5032866;28;19921;-50
2022/08/22 07:13:21;;;;;;;;;;;19.80;99.90;;;;;;5034314;28;19909;-49
2022/08/22 07:15:52;;;;;;;;;;;19.80;99.90;;;;;;5033509;28;19913;-49
2022/08/22 07:18:19;;;;;;;;;;;19.90;99.90;;;;;;5033887;28;19917;-53
2022/08/22 07:20:51;;;;;;;;;;;19.90;99.90;;;;;;5033643;28;20043;-45
2022/08/22 07:23:38;;;;;;;;;;;20.00;99.90;;;;;;5033881;28;20000;-48
2022/08/22 07:26:19;;;;;;;;;;;20.20;99.90;;;;;;5033607;28;19976;-51
2022/08/22 07:28:48;;;;;;;;;;;20.40;99.90;;;;;;5033175;28;19909;-52
2022/08/22 07:31:16;;;;;;;;;;;20.50;99.90;;;;;;5033699;28;19909;-51
2022/08/22 07:33:45;;;;;;;;;;;20.50;99.90;;;;;;5033280;28;20011;-52
2022/08/22 07:36:16;;;;;;;;;;;20.60;99.90;;;;;;5033381;28;20051;-45
2022/08/22 07:38:45;;;;;;;;;;;20.60;99.90;;;;;;5034071;28;20381;-47
2022/08/22 07:41:19;;;;;;;;;;;20.80;99.90;;;;;;5033895;28;19909;-50
2022/08/22 07:43:51;;;;;;;;;;;20.90;99.90;;;;;;5033170;28;19913;-48
2022/08/22 07:46:19;;;;;;;;;;;21.00;99.80;;;;;;5032355;28;19910;-46
2022/08/22 07:49:06;;;;;;;;;;;21.10;99.90;;;;;;5033650;28;19981;-49
2022/08/22 07:51:50;;;;;;;;;;;21.20;99.80;;;;;;5033566;28;19963;-47
2022/08/22 07:54:22;;;;;;;;;;;21.40;99.40;;;;;;5033387;28;19910;-47
2022/08/22 07:57:03;;;;;;;;;;;21.50;99.30;;;;;;5033186;28;19917;-51
2022/08/22 07:59:30;;;;;;;;;;;21.60;98.80;;;;;;5033058;28;19910;-50
2022/08/22 08:01:57;;;;;;;;;;;21.60;98.90;;;;;;5033204;28;19913;-47
2022/08/22 08:04:25;;;;;;;;;;;21.80;98.70;;;;;;5033057;28;19915;-49
2022/08/22 08:06:51;;;;;;;;;;;21.90;98.60;;;;;;5033148;28;19909;-51
2022/08/22 08:09:17;;;;;;;;;;;22.00;97.90;;;;;;5033127;28;19964;-53
2022/08/22 08:11:43;;;;;;;;;;;22.10;97.80;;;;;;5033576;28;19913;-47
2022/08/22 08:14:10;;;;;;;;;;;22.30;97.20;;;;;;5032570;28;20389;-49
2022/08/22 08:16:43;;;;;;;;;;;22.30;96.30;;;;;;5030857;28;19921;-51
2022/08/22 08:19:10;;;;;;;;;;;22.30;96.30;;;;;;5032940;28;19920;-49
2022/08/22 08:21:41;;;;;;;;;;;22.40;95.80;;;;;;5032448;28;20007;-46
2022/08/22 08:24:10;;;;;;;;;;;22.60;95.80;;;;;;5032676;28;19909;-50
2022/08/22 08:28:32;;;;;;;;;;;22.60;95.50;;;;;;5032419;28;19951;-47
2022/08/22 08:29:28;;;;;;;;;;;22.80;95.30;;;;;;5029074;28;19909;-50
2022/08/22 08:31:54;;;;;;;;;;;22.80;95.00;;;;;;5033080;28;19913;-48
2022/08/22 08:34:22;;;;;;;;;;;22.90;95.10;;;;;;5034123;28;20353;-46
2022/08/22 08:36:50;;;;;;;;;;;22.90;94.90;;;;;;5032030;28;19945;-48
2022/08/22 08:39:16;;;;;;;;;;;23.00;94.80;;;;;;5032535;28;20312;-48
2022/08/22 08:41:41;;;;;;;;;;;23.10;94.50;;;;;;5032681;28;19916;-48
2022/08/22 08:44:15;;;;;;;;;;;23.00;94.00;;;;;;5032276;28;19967;-48
2022/08/22 08:46:56;;;;;;;;;;;23.10;94.00;;;;;;5032488;28;20369;-48
2022/08/22 08:49:33;;;;;;;;;;;23.20;93.60;;;;;;5032728;28;19935;-50
2022/08/22 08:52:11;;;;;;;;;;;23.30;93.00;;;;;;5032346;28;19913;-47
2022/08/22 08:54:36;;;;;;;;;;;23.20;93.10;;;;;;5031807;28;20339;-47
2022/08/22 08:57:25;;;;;;;;;;;23.20;93.30;;;;;;5031143;28;19923;-47
2022/08/22 09:00:03;;;;;;;;;;;23.20;93.40;;;;;;5032211;28;19909;-47
2022/08/22 09:02:38;;;;;;;;;;;23.30;93.30;;;;;;5031048;28;19959;-48
2022/08/22 09:05:22;;;;;;;;;;;23.30;93.40;;;;;;5032272;28;19913;-49
2022/08/22 09:07:50;;;;;;;;;;;23.30;93.30;;;;;;5032486;28;19932;-47
2022/08/22 09:10:35;;;;;;;;;;;23.40;93.00;;;;;;5032196;28;19909;-50
2022/08/22 09:13:06;;;;;;;;;;;23.50;93.00;;;;;;5033315;28;19909;-48
2022/08/22 09:15:52;;;;;;;;;;;23.60;92.40;;;;;;5032158;28;19975;-51
2022/08/22 09:18:20;;;;;;;;;;;23.70;92.00;;;;;;5030041;28;20000;-48
2022/08/22 09:20:46;;;;;;;;;;;23.80;91.70;;;;;;5032308;28;19917;-51
2022/08/22 09:23:30;;;;;;;;;;;24.00;91.50;;;;;;5033011;28;19909;-48
2022/08/22 09:26:28;;;;;;;;;;;24.20;91.00;;;;;;5030176;28;20377;-51
2022/08/22 09:29:07;;;;;;;;;;;24.20;90.40;;;;;;5031439;28;19910;-49
2022/08/22 09:31:50;;;;;;;;;;;24.10;90.40;;;;;;5032445;28;20376;-49
2022/08/22 09:34:18;;;;;;;;;;;24.20;88.40;;;;;;5033542;28;19909;-47
2022/08/22 09:36:59;;;;;;;;;;;24.20;88.80;;;;;;5031663;28;19917;-49
2022/08/22 09:39:35;;;;;;;;;;;24.30;87.70;;;;;;5032178;28;20425;-49
2022/08/22 09:42:17;;;;;;;;;;;24.50;87.10;;;;;;5031790;28;19951;-54
2022/08/22 09:44:49;;;;;;;;;;;24.60;84.90;;;;;;5031076;28;19909;-51
2022/08/22 09:47:17;;;;;;;;;;;24.80;85.70;;;;;;5031470;28;19909;-50
2022/08/22 09:50:03;;;;;;;;;;;25.00;84.40;;;;;;5031950;28;19909;-52
2022/08/22 09:52:32;;;;;;;;;;;25.10;84.50;;;;;;5031441;28;20324;-48
2022/08/22 09:55:17;;;;;;;;;;;25.20;82.80;;;;;;5012324;28;20399;-53
2022/08/22 09:57:43;;;;;;;;;;;25.30;81.90;;;;;;5011077;28;19929;-48
2022/08/22 10:00:20;;;;;;;;;;;25.30;81.20;;;;;;5011754;28;19910;-53
2022/08/22 10:02:49;;;;;;;;;;;25.30;81.70;;;;;;5027723;28;19956;-47
2022/08/22 10:05:19;;;;;;;;;;;25.60;81.40;;;;;;5011857;28;19971;-51
2022/08/22 10:07:56;;;;;;;;;;;25.70;81.10;;;;;;5011620;28;19910;-50
2022/08/22 10:10:40;;;;;;;;;;;26.00;80.30;;;;;;5012666;28;20337;-54
2022/08/22 10:13:30;;;;;;;;;;;26.20;80.10;;;;;;5011889;28;19910;-50
2022/08/22 10:15:56;;;;;;;;;;;26.30;78.40;;;;;;5012008;28;19913;-52
2022/08/22 10:18:24;;;;;;;;;;;26.20;77.70;;;;;;5030643;28;19920;-53
2022/08/22 10:20:59;;;;;;;;;;;26.10;78.10;;;;;;5031902;28;19963;-49
2022/08/22 10:23:43;;;;;;;;;;;26.10;78.20;;;;;;5031488;28;20297;-51
2022/08/22 10:26:16;;;;;;;;;;;26.10;78.00;;;;;;5046504;28;19909;-53
2022/08/22 10:28:44;;;;;;;;;;;26.40;78.10;;;;;;5030000;28;19956;-51
2022/08/22 10:31:33;;;;;;;;;;;26.30;77.00;;;;;;5031343;28;20004;-49
2022/08/22 10:34:03;;;;;;;;;;;26.30;76.50;;;;;;5031564;28;20361;-54
2022/08/22 10:36:31;;;;;;;;;;;26.40;77.00;;;;;;5031317;28;19917;-50
2022/08/22 10:38:58;;;;;;;;;;;26.50;77.00;;;;;;5032318;28;19909;-48
2022/08/22 10:41:26;;;;;;;;;;;26.70;76.50;;;;;;5035234;28;19913;-48
2022/08/22 10:43:59;;;;;;;;;;;26.70;76.40;;;;;;5034067;28;19909;-49
2022/08/22 10:46:33;;;;;;;;;;;26.70;76.10;;;;;;5035011;28;19909;-51
2022/08/22 10:49:05;;;;;;;;;;;26.70;76.30;;;;;;5035231;28;20046;-50
2022/08/22 10:51:34;;;;;;;;;;;26.60;75.60;;;;;;5034953;28;20369;-49
2022/08/22 10:54:20;;;;;;;;;;;26.70;75.20;;;;;;5033537;28;19947;-52
2022/08/22 10:57:04;;;;;;;;;;;26.70;75.10;;;;;;5034190;28;20409;-48
2022/08/22 10:59:36;;;;;;;;;;;26.60;74.30;;;;;;5035099;28;19935;-48
2022/08/22 11:02:20;;;;;;;;;;;26.60;74.50;;;;;;5033895;28;19909;-48
2022/08/22 11:04:49;;;;;;;;;;;26.60;74.20;;;;;;5044739;28;19916;-53
2022/08/22 11:07:14;;;;;;;;;;;26.60;74.40;;;;;;5028769;28;20000;-51
2022/08/22 11:09:49;;;;;;;;;;;26.70;73.60;;;;;;5034099;28;19952;-55
2022/08/22 11:12:22;;;;;;;;;;;26.60;73.70;;;;;;5034236;28;19916;-52
2022/08/22 11:14:53;;;;;;;;;;;26.60;73.50;;;;;;5033787;28;19909;-53
2022/08/22 11:17:25;;;;;;;;;;;26.40;73.50;;;;;;5031777;28;20043;-53
2022/08/22 11:20:19;;;;;;;;;;;26.40;74.70;;;;;;5029331;28;19913;-56
2022/08/22 11:23:00;;;;;;;;;;;26.40;74.60;;;;;;5033019;28;19909;-57
2022/08/22 11:25:32;;;;;;;;;;;26.50;74.30;;;;;;5044325;28;19920;-49
2022/08/22 11:28:17;;;;;;;;;;;26.50;74.00;;;;;;5032956;28;19924;-50
2022/08/22 11:31:02;;;;;;;;;;;26.40;74.40;;;;;;5033945;28;20004;-54
2022/08/22 11:33:27;;;;;;;;;;;26.40;74.70;;;;;;5034547;28;19968;-53
2022/08/22 11:35:57;;;;;;;;;;;26.50;74.30;;;;;;5033974;28;19921;-55
2022/08/22 11:38:31;;;;;;;;;;;26.40;74.70;;;;;;5034238;28;19909;-51
2022/08/22 11:41:01;;;;;;;;;;;26.30;75.10;;;;;;5033513;28;19916;-52
2022/08/22 11:43:38;;;;;;;;;;;26.00;74.70;;;;;;5033974;28;19979;-50
2022/08/22 11:46:19;;;;;;;;;;;25.80;75.50;;;;;;5013169;28;20346;-55
2022/08/22 11:48:54;;;;;;;;;;;25.70;75.40;;;;;;5013282;28;20285;-51
2022/08/22 11:51:38;;;;;;;;;;;25.60;75.40;;;;;;5013383;28;19924;-51
2022/08/22 11:54:19;;;;;;;;;;;25.50;75.90;;;;;;5032072;28;19909;-48
2022/08/22 11:56:48;;;;;;;;;;;25.50;75.80;;;;;;5029997;28;19924;-53
2022/08/22 11:59:26;;;;;;;;;;;25.50;76.00;;;;;;5033166;28;19909;-49
2022/08/22 12:02:14;;;;;;;;;;;25.50;75.90;;;;;;5032111;28;19916;-53
2022/08/22 12:04:42;;;;;;;;;;;25.30;75.90;;;;;;5032898;28;19964;-54
2022/08/22 12:07:14;;;;;;;;;;;25.60;76.10;;;;;;5032491;28;20281;-53
2022/08/22 12:09:50;;;;;;;;;;;25.80;76.20;;;;;;5032796;28;19913;-54
2022/08/22 12:12:28;;;;;;;;;;;26.10;75.40;;;;;;5032795;28;19925;-54
2022/08/22 12:15:06;;;;;;;;;;;26.40;74.70;;;;;;5032923;28;19909;-53
2022/08/22 12:17:37;;;;;;;;;;;26.60;74.20;;;;;;5032536;28;19919;-53
2022/08/22 12:20:19;;;;;;;;;;;26.80;74.20;;;;;;5032477;28;19999;-50
2022/08/22 12:22:54;;;;;;;;;;;27.00;73.70;;;;;;5032505;28;20476;-52
2022/08/22 12:25:32;;;;;;;;;;;27.00;73.30;;;;;;5032251;28;20048;-54
2022/08/22 12:27:57;;;;;;;;;;;27.10;72.10;;;;;;5032305;28;20333;-49
2022/08/22 12:30:33;;;;;;;;;;;27.20;72.30;;;;;;5032378;28;19951;-52
2022/08/22 12:33:04;;;;;;;;;;;27.10;72.10;;;;;;5029938;28;19909;-51
2022/08/22 12:35:37;;;;;;;;;;;27.20;72.80;;;;;;5031446;28;19921;-52
2022/08/22 12:38:21;;;;;;;;;;;27.40;73.30;;;;;;5031832;28;19909;-54
2022/08/22 12:40:55;;;;;;;;;;;27.50;72.80;;;;;;5045990;28;19935;-54
2022/08/22 12:43:24;;;;;;;;;;;27.60;72.70;;;;;;5029935;28;19913;-50
2022/08/22 12:45:55;;;;;;;;;;;27.60;72.00;;;;;;5030037;28;19917;-50
2022/08/22 12:48:24;;;;;;;;;;;27.60;71.80;;;;;;5031326;28;19946;-54
2022/08/22 12:50:55;;;;;;;;;;;27.70;72.20;;;;;;5032133;28;20353;-50
2022/08/22 12:53:40;;;;;;;;;;;27.80;72.00;;;;;;5032436;28;19966;-52
2022/08/22 12:56:17;;;;;;;;;;;28.00;71.60;;;;;;5031435;28;20273;-51
2022/08/22 12:58:58;;;;;;;;;;;28.10;71.10;;;;;;5031955;28;20369;-52
2022/08/22 13:01:23;;;;;;;;;;;28.00;70.40;;;;;;5031585;28;19917;-53
2022/08/22 13:03:52;;;;;;;;;;;28.10;71.30;;;;;;5031720;28;19910;-53
2022/08/22 13:06:35;;;;;;;;;;;27.80;70.70;;;;;;5031279;28;20365;-52
2022/08/22 13:09:08;;;;;;;;;;;27.70;70.40;;;;;;5032105;28;19917;-54
2022/08/22 13:11:38;;;;;;;;;;;27.60;70.90;;;;;;5031507;28;20549;-54
2022/08/22 13:14:06;;;;;;;;;;;27.50;70.60;;;;;;5031605;28;19913;-53
2022/08/22 13:16:37;;;;;;;;;;;27.60;71.20;;;;;;5031514;28;19917;-54
2022/08/22 13:19:08;;;;;;;;;;;27.90;71.00;;;;;;5029726;28;20388;-53
2022/08/22 13:21:36;;;;;;;;;;;28.10;70.20;;;;;;5031704;28;19952;-51
2022/08/22 13:24:06;;;;;;;;;;;28.20;70.60;;;;;;5031883;28;19916;-53
2022/08/22 13:26:32;;;;;;;;;;;28.20;69.80;;;;;;5030920;28;19992;-52
2022/08/22 13:28:58;;;;;;;;;;;28.30;69.90;;;;;;5032029;28;19968;-55
2022/08/22 13:31:26;;;;;;;;;;;28.40;69.00;;;;;;5031229;28;19959;-52
2022/08/22 13:33:57;;;;;;;;;;;28.40;68.80;;;;;;5031157;28;20373;-55
2022/08/22 13:36:23;;;;;;;;;;;28.80;68.50;;;;;;5029069;28;19917;-50
2022/08/22 13:39:11;;;;;;;;;;;28.80;67.30;;;;;;5031785;28;19978;-54
2022/08/22 13:41:48;;;;;;;;;;;29.10;66.50;;;;;;5030173;28;19920;-53
2022/08/22 13:44:40;;;;;;;;;;;29.20;66.30;;;;;;5031163;28;19913;-55
2022/08/22 13:47:13;;;;;;;;;;;29.20;66.50;;;;;;5027109;28;19920;-51
2022/08/22 13:49:41;;;;;;;;;;;29.10;67.00;;;;;;5030031;28;19987;-51
2022/08/22 13:52:26;;;;;;;;;;;29.10;66.60;;;;;;5030922;28;20050;-55
2022/08/22 13:54:54;;;;;;;;;;;29.10;67.30;;;;;;5011926;28;19914;-52
2022/08/22 13:57:37;;;;;;;;;;;29.20;66.10;;;;;;5010950;28;19918;-54
2022/08/22 14:00:12;;;;;;;;;;;29.20;66.50;;;;;;5012298;28;20020;-54
2022/08/22 14:02:37;;;;;;;;;;;29.20;66.10;;;;;;5011704;28;19909;-55
2022/08/22 14:05:29;;;;;;;;;;;29.20;65.60;;;;;;5011605;28;20388;-54
2022/08/22 14:07:55;;;;;;;;;;;29.40;65.50;;;;;;5011632;28;19951;-52
2022/08/22 14:10:26;;;;;;;;;;;29.40;64.90;;;;;;5011709;28;19913;-54
2022/08/22 14:12:54;;;;;;;;;;;29.40;64.60;;;;;;5012847;28;19932;-55
2022/08/22 14:15:23;;;;;;;;;;;29.20;65.00;;;;;;5014685;28;19967;-53
2022/08/22 14:17:50;;;;;;;;;;;29.10;64.90;;;;;;5015333;28;19920;-52
2022/08/22 14:20:22;;;;;;;;;;;28.80;64.10;;;;;;5014686;28;19913;-50
2022/08/22 14:23:01;;;;;;;;;;;28.50;64.80;;;;;;5015233;28;20000;-52
2022/08/22 14:25:27;;;;;;;;;;;28.40;65.70;;;;;;5015708;28;20008;-52
2022/08/22 14:27:56;;;;;;;;;;;28.60;66.60;;;;;;5015389;28;19960;-51
2022/08/22 14:30:25;;;;;;;;;;;28.80;66.40;;;;;;5015671;28;19964;-53
2022/08/22 14:33:14;;;;;;;;;;;28.80;65.90;;;;;;5014603;28;19992;-52
2022/08/22 14:35:45;;;;;;;;;;;28.90;66.20;;;;;;5023570;28;19928;-53
2022/08/22 14:38:15;;;;;;;;;;;29.00;66.00;;;;;;5017203;28;19976;-51
2022/08/22 14:40:41;;;;;;;;;;;29.10;65.50;;;;;;5018041;28;19925;-52
2022/08/22 14:43:14;;;;;;;;;;;29.00;65.50;;;;;;5015732;28;19917;-51
2022/08/22 14:45:43;;;;;;;;;;;28.90;65.00;;;;;;5032022;28;19909;-56
2022/08/22 14:48:20;;;;;;;;;;;29.00;65.40;;;;;;5035474;28;19915;-55
2022/08/22 14:50:54;;;;;;;;;;;29.00;64.90;;;;;;5034967;28;19910;-55
2022/08/22 14:53:20;;;;;;;;;;;28.80;64.80;;;;;;5035015;28;20376;-52
2022/08/22 14:55:57;;;;;;;;;;;28.70;64.60;;;;;;5034619;28;19924;-53